Arthur City, Texas
Current Conditions -  °F | °C
As of 2:55 AM on Thursday 23 Oct 2014 (Local Time) from KHHW Reporting Station
Haze Haze  
Wind Chill: 61°   Ceiling: 700
Heat Index: 61°   Visibility: 1.2mi
Dew Point: 53°   Wind: 3mph
Humidity: 75%   Direction: 100°E
Pressure: 30.14"   Gusts: NA
Location:  33.87°N, 95.51°W
Report Text: KHHW 230755Z AUTO 10003KT 1 1/4SM HZ VV007 16/12 A3014 RMK AO2 T01610117
Loading
Personal Weather Stations






























Interactive Weather Map
Tropical Storm Tracking
New forecast layout! Learn more

10-Day Weather Forecast

Advertisements
Track Severe Weather on mobile